GXXED EGLW-ZZZZ

Flight info

Callsign GXXED
Flight time N/A
Altitude 1500
Route DCT
Aircraft S76/L-SDGRWY/S

Departure

Time 2026-04-12 10:37
Airport London Heliport (EGLW)

Arrival

Time N/A
Airport ZZZZ
Time Latitude Longitude Altitude Speed Heading
2026-04-12 10:35 51.46978 -0.17868 34 ft 0 kts 285°
2026-04-12 10:36 51.47059 -0.17945 161 ft 46 kts 10°
2026-04-12 10:36 51.47557 -0.17606 303 ft 106 kts 23°
2026-04-12 10:36 51.48231 -0.16770 272 ft 135 kts 71°
2026-04-12 10:36 51.48387 -0.15256 361 ft 140 kts 88°
2026-04-12 10:37 51.48415 -0.13709 490 ft 140 kts 85°
2026-04-12 10:37 51.48983 -0.12537 658 ft 142 kts 20°
2026-04-12 10:37 51.50008 -0.12127 499 ft 156 kts
2026-04-12 10:37 51.50865 -0.11300 472 ft 145 kts 71°
2026-04-12 10:38 51.50892 -0.09772 515 ft 133 kts 104°
2026-04-12 10:38 51.50713 -0.08334 548 ft 129 kts 112°
2026-04-12 10:38 51.50381 -0.07022 557 ft 129 kts 120°
2026-04-12 10:38 51.50226 -0.05689 597 ft 104 kts 89°
2026-04-12 10:39 51.50279 -0.04764 428 ft 50 kts 156°
2026-04-12 10:39 51.50153 -0.04525 286 ft 25 kts 196°
2026-04-12 10:39 51.49908 -0.04660 261 ft 48 kts 202°
2026-04-12 10:39 51.49554 -0.04835 171 ft 57 kts 195°
2026-04-12 10:40 51.49298 -0.04956 50 ft 11 kts 258°
2026-04-12 10:40 51.49328 -0.05029 7 ft 0 kts 288°
2026-04-12 10:40 51.49416 -0.04909 181 ft 30 kts 114°
2026-04-12 10:41 51.49456 -0.04359 336 ft 72 kts 108°
2026-04-12 10:41 51.49313 -0.03415 402 ft 99 kts 125°
2026-04-12 10:41 51.48876 -0.02456 450 ft 110 kts 139°
2026-04-12 10:41 51.48471 -0.01465 318 ft 103 kts 109°
2026-04-12 10:42 51.48557 -0.00550 353 ft 31 kts 282°
2026-04-12 10:42 51.48551 -0.00757 203 ft 50 kts 246°
2026-04-12 10:42 51.48337 -0.01080 53 ft 29 kts 178°
2026-04-12 10:42 51.48323 -0.01089 17 ft 2 kts 258°
2026-04-12 10:43 51.48323 -0.01085 17 ft 0 kts 356°